Safmarine Mulanje — VROX6 — position and weather

sailwx.info

Track history (hours):
 
Tides and Currents Weather Stations Pressure Air Temp Water Temp Dewpoint Dewpoint Depression Visibility Wind Speed Wind Dir Waves Ship Positions

Safmarine Mulanje

Last reported at 2018-Jun-14 16:11 UTC. Time now 2018-Jun-20 15:04 UTC.
Position N 09°11' W 079°52'.

Length 292 m; draft 11.5 m.

Type: Ship (hazmat cat A). MMSI: 477849300.

Date/timePositionNaut miles runAvg speedWind from/ knotsBaromVisibWave heightAir tempDewpointWater temp
2018-Jun-14 16:11N 09°11' W 079°52'2 9.4
2018-Jun-14 15:56N 09°12' W 079°54'4 7.3
2018-Jun-14 15:26N 09°15' W 079°55'1 2.1
2018-Jun-14 15:01N 09°16' W 079°55'0 0.4
2018-Jun-14 14:10N 09°17' W 079°55'0 0.6
2018-Jun-14 14:00N 09°17' W 079°55'0 0.3
2018-Jun-14 13:30N 09°17' W 079°55'1 1.4
2018-Jun-14 12:58N 09°18' W 079°55'2 4.2
2018-Jun-14 12:29N 09°20' W 079°55'3 6.5
2018-Jun-14 12:01N 09°23' W 079°55'3 6.7
2018-Jun-14 11:31N 09°26' W 079°55'2 4.4
2018-Jun-14 11:00N 09°28' W 079°56'0 0.0
2018-Jun-14 10:30N 09°28' W 079°56'0 0.0
2018-Jun-14 10:00N 09°28' W 079°56'0 0.0
2018-Jun-14 09:27N 09°28' W 079°56'0 0.1
2018-Jun-14 08:57N 09°28' W 079°56'0 0.0
2018-Jun-14 08:30N 09°28' W 079°56'0 0.1
2018-Jun-14 08:00N 09°28' W 079°56'0 0.1
2018-Jun-14 07:30N 09°28' W 079°56'0 0.7
2018-Jun-14 07:00N 09°28' W 079°56'510.3
2018-Jun-14 06:30N 09°33' W 079°53'611.5
2018-Jun-14 06:00N 09°38' W 079°51'  
2018-Jun-07 05:30N 32°46' W 079°52'4 8.0
2018-Jun-07 05:00N 32°49' W 079°54'1 1.9
2018-Jun-07 04:27N 32°50' W 079°53'0 0.0
2018-Jun-07 01:26N 32°50' W 079°53'0 0.0
2018-Jun-07 00:59N 32°50' W 079°53'1 0.0
2018-Jun-06 11:51N 32°50' W 079°54'2 6.7
2018-Jun-06 11:30N 32°48' W 079°55'4 8.6
2018-Jun-06 11:00N 32°45' W 079°51'713.7
2018-Jun-06 10:28N 32°41' W 079°43'511.7
2018-Jun-06 10:00N 32°38' W 079°38'38 1.6
2018-Jun-05 09:43N 32°05' W 080°02'1212.3
2018-Jun-05 08:47N 31°59' W 080°13'712.8
2018-Jun-05 08:15N 31°58' W 080°21'313.0
2018-Jun-05 08:00N 31°57' W 080°25'713.1
2018-Jun-05 07:30N 31°57' W 080°32'612.8
2018-Jun-05 07:00N 31°56' W 080°40'712.8
2018-Jun-05 06:29N 31°60' W 080°47'713.6
2018-Jun-05 06:00N 32°02' W 080°54'611.4
2018-Jun-05 05:30N 32°05' W 080°59'4 7.9
2018-Jun-05 05:01N 32°05' W 081°04'2 4.9
2018-Jun-05 04:31N 32°06' W 081°07'2 4.0
2018-Jun-05 04:00N 32°07' W 081°08'1 1.3
2018-Jun-05 03:22N 32°08' W 081°09'0 0.0
2018-Jun-05 02:58N 32°08' W 081°09'0 0.0
2018-Jun-05 02:28N 32°08' W 081°09'0 0.0
2018-Jun-05 01:58N 32°08' W 081°09'0 0.1
2018-Jun-05 01:28N 32°08' W 081°09'0 0.1
2018-Jun-05 00:52N 32°08' W 081°09'0 0.0
2018-Jun-05 00:28N 32°08' W 081°09'0 0.0
2018-Jun-04 23:58N 32°08' W 081°09'0 0.0
2018-Jun-04 23:28N 32°08' W 081°09'0 0.0
2018-Jun-04 22:58N 32°08' W 081°09'0 0.0
2018-Jun-04 22:22N 32°08' W 081°09'0 0.1
2018-Jun-04 21:58N 32°08' W 081°09'0 0.0
2018-Jun-04 21:28N 32°08' W 081°09'0 0.0
2018-Jun-04 20:58N 32°08' W 081°09'0 0.0
2018-Jun-04 20:22N 32°08' W 081°09'0 0.0
2018-Jun-04 19:58N 32°08' W 081°09'0 0.0
2018-Jun-04 19:16N 32°08' W 081°09'0 0.0
2018-Jun-04 18:52N 32°08' W 081°09'0 0.0
2018-Jun-04 18:25N 32°08' W 081°09'0 0.0
2018-Jun-04 17:55N 32°08' W 081°09'0 0.0
2018-Jun-04 17:19N 32°08' W 081°09'0 0.0
2018-Jun-04 16:55N 32°08' W 081°09'0 0.0
2018-Jun-04 16:25N 32°08' W 081°09'  
Track history (hours):
 
Tides and Currents Weather Stations Pressure Air Temp Water Temp Dewpoint Dewpoint Depression Visibility Wind Speed Wind Dir Waves Ship Positions

Safmarine Mulanje

Last reported at 2018-Jun-14 16:11 UTC. Time now 2018-Jun-20 15:04 UTC.
Position N 09°11' W 079°52'.

Length 292 m; draft 11.5 m.

Type: Ship (hazmat cat A). MMSI: 477849300.

Date/timePositionNaut miles runAvg speedWind from/ knotsBaromVisibWave heightAir tempDewpointWater temp
2018-Jun-14 16:11N 09°11' W 079°52'2 9.4
2018-Jun-14 15:56N 09°12' W 079°54'4 7.3
2018-Jun-14 15:26N 09°15' W 079°55'1 2.1
2018-Jun-14 15:01N 09°16' W 079°55'0 0.4
2018-Jun-14 14:10N 09°17' W 079°55'0 0.6
2018-Jun-14 14:00N 09°17' W 079°55'0 0.3
2018-Jun-14 13:30N 09°17' W 079°55'1 1.4
2018-Jun-14 12:58N 09°18' W 079°55'2 4.2
2018-Jun-14 12:29N 09°20' W 079°55'3 6.5
2018-Jun-14 12:01N 09°23' W 079°55'3 6.7
2018-Jun-14 11:31N 09°26' W 079°55'2 4.4
2018-Jun-14 11:00N 09°28' W 079°56'0 0.0
2018-Jun-14 10:30N 09°28' W 079°56'0 0.0
2018-Jun-14 10:00N 09°28' W 079°56'0 0.0
2018-Jun-14 09:27N 09°28' W 079°56'0 0.1
2018-Jun-14 08:57N 09°28' W 079°56'0 0.0
2018-Jun-14 08:30N 09°28' W 079°56'0 0.1
2018-Jun-14 08:00N 09°28' W 079°56'0 0.1
2018-Jun-14 07:30N 09°28' W 079°56'0 0.7
2018-Jun-14 07:00N 09°28' W 079°56'510.3
2018-Jun-14 06:30N 09°33' W 079°53'611.5
2018-Jun-14 06:00N 09°38' W 079°51'  
2018-Jun-07 05:30N 32°46' W 079°52'4 8.0
2018-Jun-07 05:00N 32°49' W 079°54'1 1.9
2018-Jun-07 04:27N 32°50' W 079°53'0 0.0
2018-Jun-07 01:26N 32°50' W 079°53'0 0.0
2018-Jun-07 00:59N 32°50' W 079°53'1 0.0
2018-Jun-06 11:51N 32°50' W 079°54'2 6.7
2018-Jun-06 11:30N 32°48' W 079°55'4 8.6
2018-Jun-06 11:00N 32°45' W 079°51'713.7
2018-Jun-06 10:28N 32°41' W 079°43'511.7
2018-Jun-06 10:00N 32°38' W 079°38'38 1.6
2018-Jun-05 09:43N 32°05' W 080°02'1212.3
2018-Jun-05 08:47N 31°59' W 080°13'712.8
2018-Jun-05 08:15N 31°58' W 080°21'313.0
2018-Jun-05 08:00N 31°57' W 080°25'713.1
2018-Jun-05 07:30N 31°57' W 080°32'612.8
2018-Jun-05 07:00N 31°56' W 080°40'712.8
2018-Jun-05 06:29N 31°60' W 080°47'713.6
2018-Jun-05 06:00N 32°02' W 080°54'611.4
2018-Jun-05 05:30N 32°05' W 080°59'4 7.9
2018-Jun-05 05:01N 32°05' W 081°04'2 4.9
2018-Jun-05 04:31N 32°06' W 081°07'2 4.0
2018-Jun-05 04:00N 32°07' W 081°08'1 1.3
2018-Jun-05 03:22N 32°08' W 081°09'0 0.0
2018-Jun-05 02:58N 32°08' W 081°09'0 0.0
2018-Jun-05 02:28N 32°08' W 081°09'0 0.0
2018-Jun-05 01:58N 32°08' W 081°09'0 0.1
2018-Jun-05 01:28N 32°08' W 081°09'0 0.1
2018-Jun-05 00:52N 32°08' W 081°09'0 0.0
2018-Jun-05 00:28N 32°08' W 081°09'0 0.0
2018-Jun-04 23:58N 32°08' W 081°09'0 0.0
2018-Jun-04 23:28N 32°08' W 081°09'0 0.0
2018-Jun-04 22:58N 32°08' W 081°09'0 0.0
2018-Jun-04 22:22N 32°08' W 081°09'0 0.1
2018-Jun-04 21:58N 32°08' W 081°09'0 0.0
2018-Jun-04 21:28N 32°08' W 081°09'0 0.0
2018-Jun-04 20:58N 32°08' W 081°09'0 0.0
2018-Jun-04 20:22N 32°08' W 081°09'0 0.0
2018-Jun-04 19:58N 32°08' W 081°09'0 0.0
2018-Jun-04 19:16N 32°08' W 081°09'0 0.0
2018-Jun-04 18:52N 32°08' W 081°09'0 0.0
2018-Jun-04 18:25N 32°08' W 081°09'0 0.0
2018-Jun-04 17:55N 32°08' W 081°09'0 0.0
2018-Jun-04 17:19N 32°08' W 081°09'0 0.0
2018-Jun-04 16:55N 32°08' W 081°09'0 0.0
2018-Jun-04 16:25N 32°08' W 081°09'  

Dump ship's entire track history